Time;durP1;ratioP1;P1;durP2;ratioP2;P2;SDS_P1;SDS_P2;PMS_P1;PMS_P2;Temp;Humidity;BMP_temperature;BMP_pressure;BME280_temperature;BME280_humidity;BME280_pressure;Samples;Min_cycle;Max_cycle;Signal;HPM_P1;HPM_P2
2023/04/13 00:02:04;;;;;;;4.45;0.82;;;14.60;90.30;;;;;;5035661;28;20067;-67
2023/04/13 00:04:30;;;;;;;3.55;0.40;;;14.60;90.30;;;;;;5035229;28;20471;-67
2023/04/13 00:07:03;;;;;;;3.58;0.68;;;14.60;90.40;;;;;;5001281;28;20033;-65
2023/04/13 00:09:32;;;;;;;2.22;0.40;;;14.60;90.30;;;;;;5035033;28;20390;-69
2023/04/13 00:11:57;;;;;;;1.73;0.40;;;14.60;90.40;;;;;;5034649;28;20083;-64
2023/04/13 00:14:28;;;;;;;1.67;0.50;;;14.60;90.40;;;;;;5034862;28;20120;-68
2023/04/13 00:16:53;;;;;;;1.70;0.50;;;14.60;90.40;;;;;;5034313;28;20018;-67
2023/04/13 00:19:19;;;;;;;2.25;0.75;;;14.60;90.50;;;;;;5035024;28;20033;-67
2023/04/13 00:21:45;;;;;;;3.65;0.90;;;14.60;90.50;;;;;;5035051;28;20032;-68
2023/04/13 00:24:10;;;;;;;2.70;0.73;;;14.60;90.50;;;;;;5035057;28;20029;-66
2023/04/13 00:26:38;;;;;;;3.00;0.82;;;14.60;90.60;;;;;;5035028;28;20052;-68
2023/04/13 00:29:03;;;;;;;1.83;0.65;;;14.60;90.60;;;;;;5034956;28;20203;-67
2023/04/13 00:31:29;;;;;;;3.00;0.50;;;14.60;90.70;;;;;;5034951;28;20501;-65
2023/04/13 00:33:55;;;;;;;2.70;0.50;;;14.50;90.70;;;;;;5034896;28;20048;-68
2023/04/13 00:36:23;;;;;;;2.30;0.40;;;14.50;90.80;;;;;;5034837;28;20025;-68
2023/04/13 00:38:49;;;;;;;2.83;0.57;;;14.60;90.80;;;;;;5034958;28;20387;-68
2023/04/13 00:41:15;;;;;;;3.72;0.80;;;14.60;90.70;;;;;;5034455;28;20038;-66
2023/04/13 00:43:41;;;;;;;4.53;0.80;;;14.60;90.80;;;;;;5034566;28;20049;-64
2023/04/13 00:46:07;;;;;;;3.05;0.77;;;14.60;90.90;;;;;;5034665;28;20075;-65
2023/04/13 00:48:33;;;;;;;1.48;0.55;;;14.60;91.00;;;;;;5034703;28;20029;-64
2023/04/13 00:51:00;;;;;;;3.40;0.68;;;14.50;91.10;;;;;;5034708;28;20021;-68
2023/04/13 00:53:26;;;;;;;6.43;1.20;;;14.60;91.00;;;;;;5034364;28;20397;-69
2023/04/13 00:55:52;;;;;;;5.35;1.13;;;14.50;91.10;;;;;;5034118;28;20033;-64
2023/04/13 00:58:18;;;;;;;4.15;0.90;;;14.40;91.20;;;;;;5034363;28;20033;-68
2023/04/13 01:00:44;;;;;;;4.53;0.95;;;14.40;91.20;;;;;;5034294;28;20023;-64
2023/04/13 01:03:10;;;;;;;3.80;0.85;;;14.40;91.30;;;;;;5034601;28;20040;-68
2023/04/13 01:05:56;;;;;;;2.33;0.80;;;14.40;91.40;;;;;;5034132;28;20025;-68
2023/04/13 01:08:37;;;;;;;3.10;0.57;;;14.40;91.30;;;;;;5032849;28;20025;-68
2023/04/13 01:11:11;;;;;;;4.80;0.93;;;14.30;91.50;;;;;;5031965;28;20030;-69
2023/04/13 01:13:41;;;;;;;3.38;0.85;;;14.20;91.60;;;;;;5030438;28;20484;-68
2023/04/13 01:16:14;;;;;;;4.35;0.90;;;14.10;91.80;;;;;;5022384;28;20026;-67
2023/04/13 01:18:42;;;;;;;4.35;0.90;;;14.10;91.90;;;;;;5012212;28;20026;-67
2023/04/13 01:21:11;;;;;;;5.95;0.80;;;14.00;91.90;;;;;;5012743;28;20057;-68
2023/04/13 01:23:55;;;;;;;3.53;0.80;;;14.10;92.10;;;;;;5014000;28;20108;-65
2023/04/13 01:26:21;;;;;;;4.95;0.73;;;14.00;92.00;;;;;;4996130;28;20087;-68
2023/04/13 01:28:50;;;;;;;3.53;0.80;;;14.00;92.10;;;;;;5014221;28;20030;-67
2023/04/13 01:31:16;;;;;;;3.42;0.63;;;14.00;92.20;;;;;;4996665;28;20014;-64
2023/04/13 01:33:42;;;;;;;2.15;0.80;;;14.10;92.10;;;;;;5014005;28;20549;-64
2023/04/13 01:36:10;;;;;;;3.55;0.63;;;14.00;92.20;;;;;;5013870;28;20026;-66
2023/04/13 01:38:36;;;;;;;4.30;0.90;;;14.00;92.30;;;;;;5014012;28;20022;-67
2023/04/13 01:41:02;;;;;;;1.95;0.40;;;13.90;92.30;;;;;;5013539;28;20038;-64
2023/04/13 01:43:28;;;;;;;3.00;0.70;;;14.00;92.60;;;;;;5013590;28;20091;-65
2023/04/13 01:46:06;;;;;;;4.75;0.70;;;13.90;92.40;;;;;;5013811;28;20022;-66
2023/04/13 01:48:42;;;;;;;4.72;0.73;;;13.90;92.60;;;;;;4996755;28;20030;-67
2023/04/13 01:51:15;;;;;;;4.25;0.60;;;14.00;92.60;;;;;;5013893;28;20021;-68
2023/04/13 01:53:43;;;;;;;4.05;0.70;;;13.90;92.70;;;;;;5013678;28;20072;-66
2023/04/13 01:56:11;;;;;;;3.08;0.80;;;13.80;92.70;;;;;;5013607;28;20049;-68
2023/04/13 01:58:39;;;;;;;5.57;1.02;;;13.90;92.70;;;;;;5013400;28;20030;-69
2023/04/13 02:01:06;;;;;;;4.82;1.25;;;13.80;92.80;;;;;;5013570;28;20033;-68
2023/04/13 02:03:33;;;;;;;3.13;0.90;;;13.90;92.70;;;;;;5013732;28;20025;-67
2023/04/13 02:06:00;;;;;;;4.43;1.00;;;13.80;92.80;;;;;;5013384;28;20021;-68
2023/04/13 02:08:25;;;;;;;3.35;0.70;;;13.80;92.80;;;;;;5012833;28;20018;-67
2023/04/13 02:10:51;;;;;;;3.60;0.70;;;13.80;92.90;;;;;;5013170;28;20033;-68
2023/04/13 02:13:17;;;;;;;3.90;0.70;;;13.80;92.70;;;;;;5013208;28;20390;-64
2023/04/13 02:15:43;;;;;;;1.88;0.60;;;13.80;92.70;;;;;;5013184;28;20029;-67
2023/04/13 02:18:10;;;;;;;4.20;0.73;;;13.80;93.00;;;;;;5013147;28;20026;-64
2023/04/13 02:20:42;;;;;;;4.45;0.93;;;13.80;92.70;;;;;;4995648;28;20018;-67
2023/04/13 02:23:14;;;;;;;4.15;0.60;;;13.80;92.80;;;;;;5013024;28;20499;-68
2023/04/13 02:25:42;;;;;;;3.40;0.70;;;13.70;92.90;;;;;;5013122;28;20029;-67
2023/04/13 02:28:08;;;;;;;3.80;0.63;;;13.70;92.90;;;;;;5012754;28;20022;-65
2023/04/13 02:30:34;;;;;;;2.35;0.77;;;13.80;92.90;;;;;;5013446;28;20018;-64
2023/04/13 02:32:59;;;;;;;3.95;0.82;;;13.80;92.90;;;;;;5013334;28;20037;-66
2023/04/13 02:35:26;;;;;;;2.70;0.88;;;13.70;93.00;;;;;;4995641;28;20444;-66
2023/04/13 02:37:52;;;;;;;2.30;0.85;;;13.70;92.90;;;;;;5012444;28;20030;-67
2023/04/13 02:40:18;;;;;;;3.50;0.70;;;13.80;92.80;;;;;;5012524;28;20018;-65
2023/04/13 02:42:43;;;;;;;3.33;0.63;;;13.70;92.90;;;;;;5012627;28;20033;-67
2023/04/13 02:45:14;;;;;;;3.45;0.60;;;13.70;92.90;;;;;;5012666;28;20079;-64
2023/04/13 02:47:39;;;;;;;2.40;0.40;;;13.80;93.00;;;;;;5012913;28;20375;-65
2023/04/13 02:50:06;;;;;;;2.78;0.70;;;13.80;92.90;;;;;;5012902;28;20022;-64
2023/04/13 02:52:31;;;;;;;2.35;0.75;;;13.70;92.80;;;;;;5012252;28;20060;-66
2023/04/13 02:54:57;;;;;;;1.60;0.40;;;13.70;92.80;;;;;;5012919;28;20053;-67
2023/04/13 02:57:24;;;;;;;3.53;0.63;;;13.70;92.80;;;;;;5015470;28;20056;-67
2023/04/13 02:59:50;;;;;;;4.00;0.60;;;13.70;92.70;;;;;;5032288;28;20033;-64
2023/04/13 03:02:16;;;;;;;4.97;0.65;;;13.60;92.80;;;;;;5032423;28;20017;-67
2023/04/13 03:04:43;;;;;;;2.13;0.73;;;13.60;92.70;;;;;;5031365;28;20022;-68
2023/04/13 03:07:09;;;;;;;3.70;0.85;;;13.60;93.00;;;;;;5031773;28;20037;-67
2023/04/13 03:09:36;;;;;;;2.33;0.50;;;13.60;92.80;;;;;;5032334;28;20030;-65
2023/04/13 03:12:01;;;;;;;7.20;0.70;;;13.50;92.90;;;;;;5032471;28;20026;-67
2023/04/13 03:14:28;;;;;;;2.15;0.43;;;13.50;92.90;;;;;;5032148;28;20037;-68
2023/04/13 03:16:57;;;;;;;1.95;0.52;;;13.50;93.20;;;;;;5014612;28;20033;-64
2023/04/13 03:19:24;;;;;;;3.30;0.50;;;13.60;92.80;;;;;;5032301;28;20433;-67
2023/04/13 03:21:49;;;;;;;5.22;0.60;;;13.50;92.80;;;;;;5032034;28;20486;-66
2023/04/13 03:24:15;;;;;;;2.63;0.70;;;13.40;92.90;;;;;;5032280;28;20049;-64
2023/04/13 03:26:41;;;;;;;4.05;0.70;;;13.50;93.10;;;;;;5032079;28;20071;-65
2023/04/13 03:29:06;;;;;;;6.43;0.90;;;13.50;92.70;;;;;;5032170;28;20380;-67
2023/04/13 03:31:32;;;;;;;3.00;0.63;;;13.40;92.80;;;;;;5032402;28;20033;-67
2023/04/13 03:33:58;;;;;;;3.47;0.57;;;13.40;93.10;;;;;;5014627;28;20038;-64
2023/04/13 03:36:26;;;;;;;2.72;0.43;;;13.40;92.90;;;;;;5031772;28;20059;-64
2023/04/13 03:38:52;;;;;;;3.60;0.57;;;13.40;93.30;;;;;;5032001;28;20018;-68
2023/04/13 03:41:18;;;;;;;4.50;0.60;;;13.30;93.00;;;;;;5032197;28;20017;-67
2023/04/13 03:43:43;;;;;;;2.63;0.52;;;13.30;93.00;;;;;;5031750;28;20056;-69
2023/04/13 03:46:09;;;;;;;3.20;0.43;;;13.30;93.00;;;;;;5032166;28;20029;-65
2023/04/13 03:48:35;;;;;;;3.38;0.68;;;13.40;93.20;;;;;;5032103;28;20028;-63
2023/04/13 03:51:01;;;;;;;4.93;0.82;;;13.30;93.20;;;;;;5031597;28;20029;-67
2023/04/13 03:53:27;;;;;;;3.65;0.70;;;13.30;92.80;;;;;;5035052;28;20030;-68
2023/04/13 03:55:53;;;;;;;2.33;1.08;;;13.40;92.90;;;;;;5035598;28;20040;-65
2023/04/13 03:58:19;;;;;;;3.17;0.73;;;13.30;92.90;;;;;;5035596;28;20030;-64
2023/04/13 04:00:45;;;;;;;2.35;0.60;;;13.30;93.10;;;;;;5035375;28;20456;-64
2023/04/13 04:03:10;;;;;;;2.60;0.80;;;13.30;93.10;;;;;;5035607;28;20025;-68
2023/04/13 04:05:39;;;;;;;4.38;0.60;;;13.30;93.00;;;;;;5035080;28;20474;-64
2023/04/13 04:08:04;;;;;;;4.05;0.70;;;13.30;92.90;;;;;;5035266;28;20060;-68
2023/04/13 04:10:30;;;;;;;4.82;0.88;;;13.20;93.10;;;;;;5035286;28;20045;-67
2023/04/13 04:12:56;;;;;;;2.75;0.60;;;13.20;93.10;;;;;;5017457;28;20040;-68
2023/04/13 04:15:22;;;;;;;3.45;0.63;;;13.20;93.10;;;;;;5035373;28;20034;-68
2023/04/13 04:17:47;;;;;;;1.70;0.50;;;13.20;93.40;;;;;;5035385;28;20534;-67
2023/04/13 04:20:13;;;;;;;4.22;0.50;;;13.20;93.00;;;;;;5016952;28;20018;-68
2023/04/13 04:22:40;;;;;;;5.03;0.63;;;13.30;93.30;;;;;;5035195;28;20097;-66
2023/04/13 04:25:07;;;;;;;1.92;0.40;;;13.30;93.20;;;;;;5034974;28;20047;-65
2023/04/13 04:27:37;;;;;;;2.30;0.40;;;13.30;93.10;;;;;;5035088;28;20028;-67
2023/04/13 04:30:04;;;;;;;1.27;0.40;;;13.20;93.10;;;;;;5034812;28;20033;-67
2023/04/13 04:32:33;;;;;;;1.80;0.45;;;13.30;93.40;;;;;;5034963;28;20108;-68
2023/04/13 04:34:59;;;;;;;2.70;0.50;;;13.30;93.30;;;;;;5034669;28;20025;-66
2023/04/13 04:37:25;;;;;;;4.25;0.73;;;13.30;93.30;;;;;;5034874;28;20023;-64
2023/04/13 04:39:52;;;;;;;2.90;1.08;;;13.30;93.30;;;;;;5034676;28;20029;-68
2023/04/13 04:42:17;;;;;;;1.95;0.68;;;13.30;93.20;;;;;;5034825;28;20033;-68
2023/04/13 04:44:46;;;;;;;3.10;0.65;;;13.30;93.40;;;;;;5034637;28;20114;-68
2023/04/13 04:47:18;;;;;;;3.15;0.52;;;13.30;93.10;;;;;;5034761;28;20030;-64
2023/04/13 04:49:44;;;;;;;2.55;0.40;;;13.30;93.20;;;;;;5034352;28;20021;-66
2023/04/13 04:52:11;;;;;;;2.92;0.85;;;13.30;93.60;;;;;;5034682;28;20087;-68
2023/04/13 04:54:38;;;;;;;3.50;0.50;;;13.30;93.20;;;;;;5034560;28;20100;-63
2023/04/13 04:57:04;;;;;;;3.20;0.47;;;13.20;93.00;;;;;;5034253;28;20018;-63
2023/04/13 04:59:29;;;;;;;2.97;0.60;;;13.30;93.30;;;;;;5016801;28;20080;-64
2023/04/13 05:01:55;;;;;;;3.55;0.65;;;13.20;93.20;;;;;;5034130;28;20097;-69
2023/04/13 05:04:21;;;;;;;2.75;0.65;;;13.20;93.20;;;;;;5033756;28;20095;-68
2023/04/13 05:06:47;;;;;;;3.67;0.55;;;13.30;93.50;;;;;;5033467;28;20034;-66
2023/04/13 05:09:13;;;;;;;2.88;0.95;;;13.30;93.40;;;;;;5033947;28;20018;-64
2023/04/13 05:11:40;;;;;;;2.90;0.60;;;13.30;93.40;;;;;;5034277;28;20046;-64
2023/04/13 05:14:05;;;;;;;2.65;0.60;;;13.30;93.30;;;;;;5034039;28;20033;-64
2023/04/13 05:16:32;;;;;;;2.60;0.65;;;13.20;93.30;;;;;;5033999;28;20425;-65
2023/04/13 05:18:58;;;;;;;1.52;0.40;;;13.30;93.50;;;;;;5033934;28;20242;-64
2023/04/13 05:21:25;;;;;;;4.30;0.57;;;13.30;93.70;;;;;;5033911;28;20079;-65
2023/04/13 05:23:51;;;;;;;4.03;0.60;;;13.30;93.50;;;;;;5034274;28;20032;-64
2023/04/13 05:26:16;;;;;;;2.70;0.65;;;13.30;93.30;;;;;;5033810;28;20025;-65
2023/04/13 05:28:42;;;;;;;3.33;0.63;;;13.40;93.50;;;;;;5033973;28;20033;-67
2023/04/13 05:31:08;;;;;;;4.43;0.88;;;13.40;93.40;;;;;;5016032;28;20486;-67
2023/04/13 05:33:34;;;;;;;5.30;0.93;;;13.40;93.40;;;;;;5033749;28;20052;-66
2023/04/13 05:36:01;;;;;;;4.32;0.82;;;13.50;93.10;;;;;;5033642;28;20033;-65
2023/04/13 05:38:26;;;;;;;4.80;1.00;;;13.50;92.80;;;;;;5033792;28;20028;-67
2023/04/13 05:40:53;;;;;;;4.07;1.25;;;13.50;92.80;;;;;;5033467;28;20116;-68
2023/04/13 05:43:19;;;;;;;2.95;0.95;;;13.40;93.30;;;;;;5015710;28;20029;-64
2023/04/13 05:45:45;;;;;;;2.90;0.70;;;13.40;93.10;;;;;;5033380;28;20036;-67
2023/04/13 05:48:11;;;;;;;3.55;1.00;;;13.50;93.40;;;;;;5033330;28;20013;-67
2023/04/13 05:50:36;;;;;;;2.67;0.68;;;13.50;93.20;;;;;;5033474;28;20425;-64
2023/04/13 05:53:04;;;;;;;4.93;1.20;;;13.60;93.20;;;;;;5033349;28;20090;-66
2023/04/13 05:55:31;;;;;;;3.75;0.65;;;13.60;93.10;;;;;;5033491;28;20022;-66
2023/04/13 05:57:56;;;;;;;5.78;1.23;;;13.70;93.20;;;;;;5033080;28;20462;-66
2023/04/13 06:00:22;;;;;;;2.95;0.47;;;13.70;92.80;;;;;;5032905;28;20102;-67
2023/04/13 06:02:49;;;;;;;6.18;0.75;;;13.70;93.00;;;;;;5033177;28;20151;-66
2023/04/13 06:05:15;;;;;;;4.32;0.90;;;13.70;93.00;;;;;;5033404;28;20036;-64
2023/04/13 06:07:45;;;;;;;6.38;1.25;;;13.70;93.00;;;;;;5033005;28;20044;-67
2023/04/13 06:10:11;;;;;;;2.83;0.85;;;13.80;92.70;;;;;;5033006;28;20029;-68
2023/04/13 06:12:37;;;;;;;5.07;1.20;;;13.80;92.90;;;;;;5033160;28;20061;-63
2023/04/13 06:15:03;;;;;;;5.47;1.27;;;13.80;92.80;;;;;;5032213;28;20060;-67
2023/04/13 06:17:29;;;;;;;7.57;1.70;;;13.80;92.70;;;;;;5033110;28;20382;-66
2023/04/13 06:19:55;;;;;;;5.95;1.10;;;13.80;92.40;;;;;;5033052;28;20044;-63
2023/04/13 06:22:21;;;;;;;3.17;1.17;;;13.90;92.50;;;;;;5032928;28;20025;-67
2023/04/13 06:24:48;;;;;;;6.50;1.50;;;13.90;92.40;;;;;;5032860;28;20387;-66
2023/04/13 06:27:14;;;;;;;7.65;2.00;;;14.00;92.30;;;;;;5032834;28;20028;-65
2023/04/13 06:29:40;;;;;;;7.25;1.73;;;14.00;91.90;;;;;;5032603;28;20429;-67
2023/04/13 06:32:06;;;;;;;5.60;1.30;;;14.00;92.00;;;;;;5032607;28;20017;-65
2023/04/13 06:34:33;;;;;;;5.35;1.75;;;14.00;92.20;;;;;;5032863;28;20136;-67
2023/04/13 06:36:59;;;;;;;6.13;1.60;;;14.00;91.80;;;;;;5032729;28;20487;-66
2023/04/13 06:39:26;;;;;;;7.47;1.75;;;14.00;91.80;;;;;;5032712;28;20498;-65
2023/04/13 06:41:52;;;;;;;5.75;1.40;;;14.00;91.80;;;;;;5032913;28;20026;-66
2023/04/13 06:44:17;;;;;;;5.70;1.52;;;14.00;91.90;;;;;;5032279;28;20380;-66
2023/04/13 06:46:43;;;;;;;9.50;1.77;;;14.00;92.00;;;;;;5032431;28;20383;-66
2023/04/13 06:49:08;;;;;;;7.57;1.67;;;14.10;91.80;;;;;;5032303;28;20048;-67
2023/04/13 06:51:34;;;;;;;6.22;1.45;;;14.10;91.80;;;;;;5032728;28;20096;-64
2023/04/13 06:54:00;;;;;;;5.72;1.25;;;14.10;91.80;;;;;;5014677;28;20441;-65
2023/04/13 06:56:26;;;;;;;6.93;1.50;;;14.20;91.60;;;;;;5032512;28;20540;-67
2023/04/13 06:58:56;;;;;;;7.68;1.60;;;14.20;91.50;;;;;;5031999;28;20053;-66
2023/04/13 07:01:22;;;;;;;8.32;1.92;;;14.20;91.40;;;;;;5032317;28;20018;-67
2023/04/13 07:03:47;;;;;;;9.18;2.15;;;14.20;91.30;;;;;;5032469;28;20025;-64
2023/04/13 07:06:13;;;;;;;10.50;1.92;;;14.30;91.00;;;;;;5032500;28;20387;-66
2023/04/13 07:08:39;;;;;;;8.93;1.70;;;14.30;91.20;;;;;;5032002;28;20025;-65
2023/04/13 07:11:05;;;;;;;5.90;1.42;;;14.30;91.20;;;;;;5014705;28;20091;-66
2023/04/13 07:13:31;;;;;;;7.32;1.73;;;14.30;91.20;;;;;;5031799;28;20042;-63
2023/04/13 07:15:56;;;;;;;7.65;1.58;;;14.40;91.20;;;;;;5032454;28;20482;-63
2023/04/13 07:18:22;;;;;;;5.82;2.08;;;14.40;91.10;;;;;;5032292;28;20028;-65
2023/04/13 07:20:47;;;;;;;5.97;1.70;;;14.40;91.00;;;;;;5032156;28;20026;-63
2023/04/13 07:23:13;;;;;;;6.18;1.35;;;14.40;91.00;;;;;;5032350;28;20021;-63
2023/04/13 07:25:38;;;;;;;7.32;1.80;;;14.40;91.00;;;;;;5032583;28;20553;-66
2023/04/13 07:28:04;;;;;;;5.53;1.45;;;14.50;90.80;;;;;;5035919;28;20021;-66
2023/04/13 07:30:30;;;;;;;6.60;1.63;;;14.50;90.70;;;;;;5036089;28;20022;-65
2023/04/13 07:32:56;;;;;;;4.97;1.30;;;14.50;90.80;;;;;;5035904;28;20095;-65
2023/04/13 07:35:21;;;;;;;5.80;1.58;;;14.60;90.60;;;;;;5035959;28;20051;-65
2023/04/13 07:37:48;;;;;;;5.72;1.67;;;14.60;90.70;;;;;;5036064;28;20076;-64
2023/04/13 07:40:15;;;;;;;8.77;1.98;;;14.70;90.50;;;;;;5036224;28;20057;-64
2023/04/13 07:42:41;;;;;;;6.63;1.52;;;14.70;90.40;;;;;;5035389;28;20044;-65
2023/04/13 07:45:07;;;;;;;7.75;1.83;;;14.70;90.40;;;;;;5035834;28;20026;-67
2023/04/13 07:47:32;;;;;;;7.55;1.75;;;14.80;90.30;;;;;;5035432;28;20032;-68
2023/04/13 07:49:58;;;;;;;5.53;1.85;;;14.80;90.30;;;;;;5035877;28;20498;-64
2023/04/13 07:52:24;;;;;;;7.70;1.85;;;14.80;90.10;;;;;;5035825;28;20479;-63
2023/04/13 07:54:50;;;;;;;8.40;1.85;;;14.90;90.10;;;;;;5035348;28;20034;-65
2023/04/13 07:57:20;;;;;;;5.30;1.83;;;14.90;90.00;;;;;;5035265;28;20022;-64
2023/04/13 07:59:46;;;;;;;6.82;1.63;;;15.00;90.00;;;;;;5035528;28;20025;-66
2023/04/13 08:02:11;;;;;;;7.32;1.98;;;15.00;89.40;;;;;;5035494;28;20025;-67
2023/04/13 08:04:37;;;;;;;7.50;2.13;;;15.00;89.40;;;;;;5035149;28;20383;-65
2023/04/13 08:07:03;;;;;;;7.45;2.10;;;15.10;89.10;;;;;;5034515;28;20057;-64
2023/04/13 08:09:38;;;;;;;8.57;2.00;;;15.10;89.00;;;;;;5009710;28;20083;-65
2023/04/13 08:12:03;;;;;;;9.02;1.92;;;15.20;89.20;;;;;;5033964;28;20120;-65
2023/04/13 08:14:30;;;;;;;6.72;1.88;;;15.20;88.60;;;;;;5032510;28;20129;-65
2023/04/13 08:16:55;;;;;;;10.52;2.13;;;15.20;88.90;;;;;;5034264;28;20025;-65
2023/04/13 08:19:21;;;;;;;7.80;2.00;;;15.20;88.60;;;;;;5031992;28;20022;-66
2023/04/13 08:21:47;;;;;;;6.60;1.85;;;15.20;88.90;;;;;;5034304;28;20025;-67
2023/04/13 08:24:13;;;;;;;6.72;2.15;;;15.30;88.50;;;;;;5031199;28;20036;-67
2023/04/13 08:26:38;;;;;;;6.22;1.55;;;15.30;88.40;;;;;;5014828;28;20057;-66
2023/04/13 08:29:04;;;;;;;8.65;2.20;;;15.30;88.20;;;;;;5022412;28;20059;-66
2023/04/13 08:31:31;;;;;;;5.55;1.45;;;15.30;88.10;;;;;;5015421;28;20049;-66
2023/04/13 08:33:56;;;;;;;9.18;2.28;;;15.30;88.50;;;;;;5022696;28;20029;-66
2023/04/13 08:36:22;;;;;;;7.35;1.70;;;15.40;88.30;;;;;;5033765;28;20034;-67
2023/04/13 08:38:48;;;;;;;37.15;4.03;;;15.40;88.60;;;;;;5032698;28;20060;-64
2023/04/13 08:41:16;;;;;;;8.63;2.25;;;15.40;89.30;;;;;;5028937;28;20033;-65
2023/04/13 08:43:42;;;;;;;6.13;1.88;;;15.60;87.60;;;;;;5030042;28;20041;-64
2023/04/13 08:46:07;;;;;;;7.55;2.00;;;15.60;87.70;;;;;;5014705;28;20463;-59
2023/04/13 08:48:34;;;;;;;12.02;2.28;;;15.60;87.60;;;;;;5031416;28;20501;-65
2023/04/13 08:51:00;;;;;;;9.38;2.08;;;15.60;87.50;;;;;;5014745;28;20422;-65
2023/04/13 08:53:27;;;;;;;9.02;1.88;;;15.60;87.30;;;;;;5020991;28;20045;-64
2023/04/13 08:55:54;;;;;;;6.85;1.70;;;15.60;87.40;;;;;;5014259;28;20534;-63
2023/04/13 08:58:23;;;;;;;8.50;1.80;;;15.60;87.50;;;;;;5014967;28;20025;-64
2023/04/13 09:00:49;;;;;;;5.22;1.73;;;15.60;87.20;;;;;;5031762;28;20363;-61
2023/04/13 09:03:22;;;;;;;11.52;1.80;;;15.60;88.40;;;;;;5034568;28;20018;-57
2023/04/13 09:05:49;;;;;;;;;;;15.70;88.80;;;;;;5033346;28;20120;-55
2023/04/13 09:08:15;;;;;;;5.85;1.63;;;15.70;88.90;;;;;;5031329;28;19909;-52
2023/04/13 09:10:41;;;;;;;5.85;1.73;;;15.70;88.80;;;;;;5033381;28;20029;-66
2023/04/13 09:13:07;;;;;;;6.55;2.17;;;15.60;88.90;;;;;;5034241;28;20049;-54
2023/04/13 09:15:33;;;;;;;10.40;2.25;;;15.70;88.40;;;;;;5032368;28;20124;-67
2023/04/13 09:18:16;;;;;;;7.45;2.00;;;15.70;88.30;;;;;;5032081;28;20406;-66
2023/04/13 09:20:42;;;;;;;6.80;2.03;;;15.70;87.80;;;;;;5015957;28;20014;-66
2023/04/13 09:23:13;;;;;;;8.98;2.03;;;15.70;88.30;;;;;;5013343;28;20431;-66
2023/04/13 09:25:39;;;;;;;10.70;2.55;;;15.70;88.30;;;;;;5014197;28;20026;-66
2023/04/13 09:28:05;;;;;;;9.55;2.47;;;15.70;84.90;;;;;;5013935;28;20029;-61
2023/04/13 09:30:30;;;;;;;7.80;2.17;;;15.70;85.00;;;;;;5014019;28;20052;-65
2023/04/13 09:33:03;;;;;;;8.98;2.63;;;15.70;84.90;;;;;;5013693;28;20471;-52
2023/04/13 09:35:30;;;;;;;11.23;2.97;;;15.70;85.50;;;;;;5013618;28;20491;-65
2023/04/13 09:37:55;;;;;;;10.50;3.22;;;15.70;85.20;;;;;;5029337;28;20467;-66
2023/04/13 09:40:21;;;;;;;9.55;2.58;;;15.70;84.60;;;;;;5018215;28;20033;-65
2023/04/13 09:42:55;;;;;;;9.13;2.50;;;15.70;84.60;;;;;;5032620;28;20045;-62
2023/04/13 09:45:22;;;;;;;11.43;2.75;;;15.70;84.20;;;;;;5029301;28;20736;-56
2023/04/13 09:47:47;;;;;;;7.18;2.38;;;15.60;83.50;;;;;;5012145;28;20026;-64
2023/04/13 09:50:27;;;;;;;9.40;2.20;;;15.60;83.70;;;;;;5011909;28;20501;-58
2023/04/13 09:53:01;;;;;;;30.80;3.63;;;15.60;82.60;;;;;;5013256;28;20030;-57
2023/04/13 09:55:28;;;;;;;9.93;2.20;;;15.60;81.80;;;;;;5013622;28;20382;-66
2023/04/13 09:57:54;;;;;;;8.73;2.05;;;15.60;80.40;;;;;;5013458;28;20483;-57
2023/04/13 10:00:20;;;;;;;5.75;1.90;;;15.60;80.00;;;;;;5013131;28;20057;-63
2023/04/13 10:02:50;;;;;;;7.70;2.45;;;15.60;80.50;;;;;;5027961;28;20476;-66
2023/04/13 10:05:18;;;;;;;9.23;2.13;;;15.60;80.70;;;;;;5032806;28;20028;-66
2023/04/13 10:07:44;;;;;;;7.35;2.10;;;15.60;80.50;;;;;;5032706;28;20387;-66
2023/04/13 10:10:11;;;;;;;6.43;1.83;;;15.70;80.20;;;;;;5033051;28;20032;-66
2023/04/13 10:12:41;;;;;;;6.57;1.55;;;15.70;80.10;;;;;;5028564;28;20022;-58
2023/04/13 10:15:48;;;;;;;6.38;1.55;;;15.70;79.90;;;;;;5032838;28;20034;-66
2023/04/13 10:18:48;;;;;;;8.98;1.77;;;15.70;80.50;;;;;;5018086;28;20029;-64
2023/04/13 10:21:14;;;;;;;5.95;1.90;;;15.70;80.10;;;;;;5013252;28;20037;-66
2023/04/13 10:23:40;;;;;;;6.15;1.27;;;15.70;80.60;;;;;;5011869;28;20022;-67
2023/04/13 10:26:06;;;;;;;5.43;1.65;;;15.70;80.20;;;;;;5016201;28;20104;-65
2023/04/13 10:28:46;;;;;;;6.72;1.55;;;15.70;80.40;;;;;;5031851;28;20117;-66
2023/04/13 10:31:13;;;;;;;7.38;1.90;;;15.70;80.80;;;;;;5030663;28;20040;-66
2023/04/13 10:33:52;;;;;;;6.95;1.88;;;15.70;80.70;;;;;;5031887;28;20030;-53
2023/04/13 10:36:17;;;;;;;5.90;1.60;;;15.70;80.90;;;;;;5031226;28;20036;-63
2023/04/13 10:38:44;;;;;;;9.02;1.55;;;15.80;81.00;;;;;;5025039;28;20026;-66
2023/04/13 10:41:24;;;;;;;7.28;2.05;;;15.80;80.60;;;;;;5029926;28;20021;-66
2023/04/13 10:44:05;;;;;;;6.80;2.00;;;15.80;80.80;;;;;;5032487;28;20076;-64
2023/04/13 10:46:35;;;;;;;8.82;2.10;;;15.90;80.70;;;;;;5032667;28;20053;-59
2023/04/13 10:49:03;;;;;;;7.85;1.85;;;15.80;80.40;;;;;;5031554;28;20382;-61
2023/04/13 10:51:42;;;;;;;7.70;1.70;;;15.80;80.80;;;;;;5030650;28;20024;-62
2023/04/13 10:54:08;;;;;;;6.13;1.02;;;15.80;81.00;;;;;;5032322;28;20037;-67
2023/04/13 10:56:35;;;;;;;4.35;0.90;;;15.90;80.40;;;;;;5032416;28;20501;-60
2023/04/13 10:59:01;;;;;;;6.25;1.20;;;15.80;79.70;;;;;;5032398;28;20033;-60
2023/04/13 11:01:28;;;;;;;6.47;1.55;;;15.80;79.20;;;;;;5034257;28;20022;-66
2023/04/13 11:03:55;;;;;;;6.10;1.48;;;15.90;82.30;;;;;;5036392;28;20087;-51
2023/04/13 11:06:21;;;;;;;8.40;1.52;;;15.90;82.80;;;;;;5036447;28;20048;-66
2023/04/13 11:08:46;;;;;;;6.35;1.27;;;15.90;82.80;;;;;;5036576;28;20144;-52
2023/04/13 11:11:24;;;;;;;3.88;1.17;;;15.90;81.50;;;;;;5036811;28;20034;-53
2023/04/13 11:13:49;;;;;;;24.58;12.10;;;16.00;81.80;;;;;;5036243;28;20386;-66
2023/04/13 11:16:15;;;;;;;127.43;70.75;;;16.00;82.60;;;;;;5036599;28;20024;-66
2023/04/13 11:18:41;;;;;;;249.60;134.50;;;16.00;82.10;;;;;;5036027;28;20026;-66
2023/04/13 11:21:14;;;;;;;192.38;109.55;;;16.00;81.20;;;;;;5036186;28;20037;-67
2023/04/13 11:23:40;;;;;;;159.30;90.45;;;16.00;80.60;;;;;;5018573;28;20032;-58
2023/04/13 11:26:05;;;;;;;308.75;170.50;;;16.00;81.20;;;;;;5036228;28;20021;-66
2023/04/13 11:28:39;;;;;;;292.58;162.65;;;16.00;83.70;;;;;;5036127;28;20116;-56
2023/04/13 11:31:06;;;;;;;290.52;159.50;;;16.10;84.10;;;;;;5036141;28;20021;-53
2023/04/13 11:33:33;;;;;;;316.75;177.98;;;16.10;84.40;;;;;;5035824;28;20049;-67
2023/04/13 11:35:59;;;;;;;299.10;175.48;;;16.10;85.40;;;;;;5035712;28;20363;-65
2023/04/13 11:38:25;;;;;;;271.35;152.60;;;16.20;85.40;;;;;;5035759;28;20382;-66
2023/04/13 11:40:52;;;;;;;156.48;88.82;;;16.20;84.90;;;;;;5035794;28;20017;-67
2023/04/13 11:43:20;;;;;;;195.70;111.07;;;16.20;82.60;;;;;;5035900;28;20044;-66
2023/04/13 11:45:48;;;;;;;97.13;52.42;;;16.20;82.80;;;;;;5035726;28;20029;-65
2023/04/13 11:48:14;;;;;;;131.43;75.68;;;16.30;80.20;;;;;;5035537;28;20022;-60
2023/04/13 11:50:41;;;;;;;135.35;72.10;;;16.30;80.70;;;;;;5034147;28;20498;-66
2023/04/13 11:53:08;;;;;;;141.43;78.57;;;16.30;80.40;;;;;;5017522;28;20026;-63
2023/04/13 11:55:35;;;;;;;87.68;49.30;;;16.30;81.40;;;;;;5013980;28;20026;-65
2023/04/13 11:58:08;;;;;;;102.82;59.60;;;16.40;80.20;;;;;;5029115;28;20132;-62
2023/04/13 12:00:39;;;;;;;120.38;65.70;;;16.50;81.10;;;;;;5034057;28;20053;-65
2023/04/13 12:03:12;;;;;;;108.95;58.03;;;16.50;82.30;;;;;;5032814;28;20017;-66
2023/04/13 12:05:37;;;;;;;;;;;16.50;82.40;;;;;;5027627;28;20376;-65
2023/04/13 12:08:03;;;;;;;99.72;52.67;;;16.50;81.70;;;;;;5014713;28;19912;-66
2023/04/13 12:10:35;;;;;;;95.07;52.33;;;16.50;82.00;;;;;;5015366;28;20065;-63
2023/04/13 12:13:12;;;;;;;;;;;16.50;81.90;;;;;;5015064;28;20077;-65
2023/04/13 12:15:43;;;;;;;74.68;41.17;;;16.60;80.40;;;;;;5015438;28;19906;-66
2023/04/13 12:18:11;;;;;;;81.90;44.35;;;16.60;82.00;;;;;;5015231;28;20130;-62
2023/04/13 12:20:42;;;;;;;69.20;35.95;;;16.70;82.60;;;;;;5015065;28;20022;-65
2023/04/13 12:23:24;;;;;;;45.97;24.63;;;16.80;80.70;;;;;;5015179;28;20022;-65
2023/04/13 12:25:57;;;;;;;40.13;22.92;;;16.80;79.60;;;;;;5015259;28;20030;-65
2023/04/13 12:28:36;;;;;;;31.00;16.98;;;16.80;79.30;;;;;;5015214;28;20041;-64
2023/04/13 12:31:03;;;;;;;44.05;22.63;;;16.80;77.80;;;;;;5016766;28;20109;-65
2023/04/13 12:33:29;;;;;;;35.47;17.95;;;16.80;79.70;;;;;;5022202;28;20030;-66
2023/04/13 12:35:55;;;;;;;34.58;18.30;;;16.80;78.40;;;;;;5033712;28;20044;-66
2023/04/13 12:38:22;;;;;;;35.63;19.52;;;16.80;79.50;;;;;;5034495;28;20501;-66
2023/04/13 12:40:47;;;;;;;16.10;8.75;;;16.70;80.40;;;;;;5026088;28;20037;-66
2023/04/13 12:43:13;;;;;;;6.60;3.53;;;16.80;77.10;;;;;;5026536;28;20045;-61
2023/04/13 12:45:39;;;;;;;5.95;2.33;;;16.70;73.40;;;;;;5017033;28;20033;-66